Time;durP1;ratioP1;P1;durP2;ratioP2;P2;SDS_P1;SDS_P2;PMS_P1;PMS_P2;Temp;Humidity;BMP_temperature;BMP_pressure;BME280_temperature;BME280_humidity;BME280_pressure;Samples;Min_cycle;Max_cycle;Signal;HPM_P1;HPM_P2
2023/08/22 00:00:41;;;;;;;9.03;5.43;;;21.30;18.60;;;;;;4923214;29;20175;-85
2023/08/22 00:03:07;;;;;;;10.17;5.40;;;21.20;20.60;;;;;;4922278;29;20225;-89
2023/08/22 00:05:33;;;;;;;10.40;5.07;;;21.10;26.30;;;;;;4922708;29;20179;-88
2023/08/22 00:08:06;;;;;;;9.03;5.33;;;21.00;26.60;;;;;;4922905;29;20192;-88
2023/08/22 00:10:33;;;;;;;8.40;4.87;;;21.10;26.30;;;;;;4923635;29;20236;-89
2023/08/22 00:12:59;;;;;;;9.50;5.30;;;21.20;24.90;;;;;;4914364;29;20179;-88
2023/08/22 00:15:24;;;;;;;9.97;4.70;;;21.20;23.00;;;;;;4902033;29;20200;-89
2023/08/22 00:17:50;;;;;;;10.27;4.80;;;21.10;22.00;;;;;;4901244;29;20213;-89
2023/08/22 00:20:17;;;;;;;8.87;5.10;;;21.20;22.90;;;;;;4901927;29;20550;-85
2023/08/22 00:22:42;;;;;;;11.20;4.83;;;21.30;19.30;;;;;;4901005;29;20219;-85
2023/08/22 00:25:10;;;;;;;11.37;5.47;;;21.50;16.80;;;;;;4900691;29;20220;-84
2023/08/22 00:27:36;;;;;;;11.80;5.43;;;21.60;10.70;;;;;;4900762;29;20203;-84
2023/08/22 00:30:03;;;;;;;9.27;5.37;;;21.50;9.10;;;;;;4902280;29;20177;-84
2023/08/22 00:32:29;;;;;;;11.00;5.33;;;21.40;10.90;;;;;;4907003;29;20239;-84
2023/08/22 00:34:55;;;;;;;10.53;5.77;;;21.40;8.10;;;;;;4901690;29;20229;-84
2023/08/22 00:37:21;;;;;;;11.07;5.47;;;21.40;9.30;;;;;;4900570;29;20192;-84
2023/08/22 00:39:47;;;;;;;9.73;5.27;;;21.40;8.30;;;;;;4899864;29;20276;-84
2023/08/22 00:42:13;;;;;;;12.50;8.40;;;21.40;6.10;;;;;;4899862;29;20680;-85
2023/08/22 00:44:38;;;;;;;10.73;5.37;;;21.40;7.50;;;;;;4899824;29;20176;-85
2023/08/22 00:47:05;;;;;;;9.23;4.67;;;21.50;7.70;;;;;;4899926;29;20191;-84
2023/08/22 00:49:31;;;;;;;9.00;4.50;;;21.60;7.00;;;;;;4898792;29;20288;-84
2023/08/22 00:51:59;;;;;;;11.60;5.17;;;21.80;1.40;;;;;;4900582;29;20220;-85
2023/08/22 00:54:30;;;;;;;7.13;4.70;;;21.80;1.00;;;;;;4900638;29;20177;-84
2023/08/22 00:56:56;;;;;;;9.77;5.23;;;21.90;1.00;;;;;;4900800;29;20180;-84
2023/08/22 00:59:27;;;;;;;10.33;5.33;;;22.00;1.00;;;;;;4899717;29;20205;-84
2023/08/22 01:01:53;;;;;;;8.90;5.40;;;22.10;1.00;;;;;;4917234;29;20662;-85
2023/08/22 01:04:20;;;;;;;8.37;4.50;;;22.10;1.00;;;;;;4900286;29;20274;-85
2023/08/22 01:06:58;;;;;;;10.53;5.30;;;22.20;1.00;;;;;;4899529;29;20180;-85
2023/08/22 01:09:31;;;;;;;8.17;4.50;;;22.30;1.00;;;;;;4900123;29;20184;-85
2023/08/22 01:12:26;;;;;;;9.13;5.60;;;22.50;1.00;;;;;;4899832;29;20211;-83
2023/08/22 01:15:00;;;;;;;10.20;4.93;;;22.50;1.00;;;;;;4897171;29;20187;-86
2023/08/22 01:17:27;;;;;;;8.70;4.73;;;22.50;1.00;;;;;;4903584;29;20221;-83
2023/08/22 01:19:53;;;;;;;9.27;5.27;;;22.40;1.00;;;;;;4902650;29;20218;-84
2023/08/22 01:22:28;;;;;;;7.63;4.90;;;22.60;1.00;;;;;;4899988;29;20250;-84
2023/08/22 01:24:54;;;;;;;8.30;5.20;;;22.50;1.00;;;;;;4900077;29;20672;-85
2023/08/22 01:27:25;;;;;;;10.10;4.90;;;22.40;1.00;;;;;;4899069;29;20185;-84
2023/08/22 01:29:56;;;;;;;10.10;5.27;;;22.20;1.00;;;;;;4899026;29;20280;-86
2023/08/22 01:32:29;;;;;;;8.30;4.47;;;22.30;1.00;;;;;;4898998;29;20658;-84
2023/08/22 01:35:01;;;;;;;8.60;4.87;;;22.30;1.00;;;;;;4899754;29;20640;-84
2023/08/22 01:37:29;;;;;;;9.97;5.37;;;22.40;1.00;;;;;;4899222;29;20240;-84
2023/08/22 01:39:57;;;;;;;8.37;5.33;;;22.40;1.00;;;;;;4916889;29;20752;-85
2023/08/22 01:42:26;;;;;;;9.73;5.10;;;22.30;1.00;;;;;;4899129;29;20223;-85
2023/08/22 01:44:52;;;;;;;10.23;4.67;;;22.20;1.00;;;;;;4915930;29;20622;-84
2023/08/22 01:47:17;;;;;;;6.63;4.70;;;22.00;1.00;;;;;;4898916;29;20177;-84
2023/08/22 01:49:43;;;;;;;10.77;5.40;;;22.00;1.00;;;;;;4916527;29;20177;-84
2023/08/22 01:52:09;;;;;;;6.73;4.90;;;22.00;1.00;;;;;;4899437;29;20184;-86
2023/08/22 01:54:37;;;;;;;12.60;5.80;;;22.00;1.00;;;;;;4898934;29;20272;-84
2023/08/22 01:57:03;;;;;;;6.63;4.80;;;21.90;1.00;;;;;;4899773;29;20177;-85
2023/08/22 01:59:29;;;;;;;8.07;4.97;;;21.90;1.90;;;;;;4899631;29;20195;-85
2023/08/22 02:01:54;;;;;;;8.73;5.13;;;21.90;3.40;;;;;;4898417;29;20205;-86
2023/08/22 02:04:20;;;;;;;8.73;4.63;;;21.80;6.20;;;;;;4902852;29;20177;-86
2023/08/22 02:06:46;;;;;;;8.63;4.60;;;21.80;6.70;;;;;;4903630;29;20232;-89
2023/08/22 02:09:13;;;;;;;7.63;5.10;;;21.70;8.20;;;;;;4903511;29;20273;-89
2023/08/22 02:11:39;;;;;;;10.63;5.10;;;21.60;13.40;;;;;;4903400;29;20197;-89
2023/08/22 02:14:04;;;;;;;10.73;5.00;;;21.60;13.90;;;;;;4922933;29;20208;-85
2023/08/22 02:16:30;;;;;;;9.10;5.17;;;21.60;15.60;;;;;;4904104;29;20204;-86
2023/08/22 02:18:58;;;;;;;9.03;4.93;;;21.60;16.30;;;;;;4904712;29;20291;-87
2023/08/22 02:21:24;;;;;;;6.40;4.50;;;21.50;16.10;;;;;;4903849;29;20215;-87
2023/08/22 02:23:50;;;;;;;6.80;4.30;;;21.60;15.10;;;;;;4903198;29;20181;-87
2023/08/22 02:26:16;;;;;;;7.73;4.87;;;21.50;14.90;;;;;;4904469;29;20181;-88
2023/08/22 02:28:41;;;;;;;10.30;4.87;;;21.50;16.30;;;;;;4902792;29;20279;-87
2023/08/22 02:31:07;;;;;;;12.30;5.10;;;21.30;18.70;;;;;;4921114;29;20179;-87
2023/08/22 02:33:33;;;;;;;9.47;5.00;;;21.20;22.80;;;;;;4903455;29;20222;-87
2023/08/22 02:35:58;;;;;;;13.33;5.63;;;21.20;24.40;;;;;;4903770;29;20175;-87
2023/08/22 02:38:24;;;;;;;13.07;5.30;;;21.20;24.10;;;;;;4902752;29;20195;-87
2023/08/22 02:40:50;;;;;;;10.00;5.47;;;21.40;20.10;;;;;;4903266;29;20187;-87
2023/08/22 02:43:16;;;;;;;12.07;6.10;;;21.50;16.20;;;;;;4902679;29;20222;-88
2023/08/22 02:45:46;;;;;;;9.53;5.27;;;21.50;14.00;;;;;;4903213;29;20185;-88
2023/08/22 02:48:12;;;;;;;9.93;5.07;;;21.50;11.20;;;;;;4903448;29;20180;-87
2023/08/22 02:50:38;;;;;;;11.73;5.90;;;21.50;11.60;;;;;;4903271;29;20266;-89
2023/08/22 02:53:04;;;;;;;9.60;5.40;;;21.60;10.10;;;;;;4910889;29;20196;-86
2023/08/22 02:55:31;;;;;;;9.23;5.63;;;21.60;9.40;;;;;;4923165;29;20173;-88
2023/08/22 02:57:57;;;;;;;12.70;5.50;;;21.50;8.50;;;;;;4902860;29;20180;-85
2023/08/22 03:00:23;;;;;;;10.03;5.70;;;21.60;7.60;;;;;;4901902;29;20202;-88
2023/08/22 03:02:49;;;;;;;12.67;6.27;;;21.50;9.90;;;;;;4902044;29;20216;-86
2023/08/22 03:05:14;;;;;;;10.80;5.90;;;21.40;14.30;;;;;;4901405;29;20187;-87
2023/08/22 03:07:41;;;;;;;13.57;6.30;;;21.30;16.90;;;;;;4901470;29;20184;-87
2023/08/22 03:10:08;;;;;;;9.27;6.10;;;21.20;20.20;;;;;;4902112;29;20180;-88
2023/08/22 03:12:34;;;;;;;13.07;5.70;;;21.20;21.40;;;;;;4902463;29;20199;-88
2023/08/22 03:15:01;;;;;;;10.03;6.57;;;21.50;11.00;;;;;;4902666;29;20182;-88
2023/08/22 03:17:27;;;;;;;12.27;6.50;;;21.50;8.10;;;;;;4901668;29;20263;-88
2023/08/22 03:19:53;;;;;;;10.97;6.33;;;21.40;13.10;;;;;;4902607;29;20196;-87
2023/08/22 03:22:18;;;;;;;10.10;5.97;;;21.50;13.00;;;;;;4902997;29;20215;-87
2023/08/22 03:24:44;;;;;;;11.03;6.27;;;21.40;11.20;;;;;;4919624;29;20174;-86
2023/08/22 03:27:11;;;;;;;9.83;6.07;;;21.20;14.30;;;;;;4902447;29;20774;-88
2023/08/22 03:29:36;;;;;;;9.33;5.50;;;21.10;19.70;;;;;;4902019;29;20182;-88
2023/08/22 03:32:02;;;;;;;10.77;5.77;;;20.80;26.10;;;;;;4902308;29;20179;-87
2023/08/22 03:34:28;;;;;;;8.00;6.07;;;20.90;26.60;;;;;;4901254;29;20518;-88
2023/08/22 03:36:53;;;;;;;12.43;6.70;;;20.80;26.90;;;;;;4918840;29;20210;-87
2023/08/22 03:39:19;;;;;;;9.87;7.00;;;20.90;24.80;;;;;;4925794;29;20162;-87
2023/08/22 03:41:45;;;;;;;11.07;6.33;;;21.00;24.90;;;;;;4924870;29;20209;-87
2023/08/22 03:44:10;;;;;;;10.10;6.33;;;21.00;26.00;;;;;;4923981;29;20219;-86
2023/08/22 03:46:39;;;;;;;11.67;6.40;;;20.90;25.90;;;;;;4938141;29;20247;-88
2023/08/22 03:49:25;;;;;;;8.83;6.00;;;20.80;28.60;;;;;;4920571;29;20207;-88
2023/08/22 03:51:51;;;;;;;11.50;6.27;;;20.80;29.10;;;;;;4902647;29;20239;-88
2023/08/22 03:54:18;;;;;;;9.40;6.10;;;21.00;25.40;;;;;;4918959;29;20183;-88
2023/08/22 03:56:44;;;;;;;9.80;6.40;;;21.00;23.70;;;;;;4901485;29;20206;-87
2023/08/22 03:59:09;;;;;;;10.57;6.57;;;20.90;24.80;;;;;;4901564;29;20597;-90
2023/08/22 04:01:35;;;;;;;8.90;5.93;;;20.80;27.00;;;;;;4901500;29;20744;-88
2023/08/22 04:04:01;;;;;;;11.73;6.03;;;20.60;33.60;;;;;;4917941;29;20179;-88
2023/08/22 04:06:27;;;;;;;9.07;6.40;;;20.50;36.50;;;;;;4901829;29;20179;-88
2023/08/22 04:08:53;;;;;;;10.50;5.80;;;20.50;37.80;;;;;;4901910;29;20183;-88
2023/08/22 04:11:19;;;;;;;11.37;6.30;;;20.60;36.50;;;;;;4901420;29;20255;-87
2023/08/22 04:13:45;;;;;;;10.40;6.43;;;20.90;28.70;;;;;;4901357;29;20672;-87
2023/08/22 04:16:10;;;;;;;11.07;5.93;;;21.00;24.90;;;;;;4900205;29;20294;-84
2023/08/22 04:18:36;;;;;;;9.53;5.97;;;20.90;26.40;;;;;;4900118;29;20193;-85
2023/08/22 04:21:03;;;;;;;10.23;6.17;;;20.50;30.70;;;;;;4900060;29;20210;-85
2023/08/22 04:23:29;;;;;;;9.20;6.23;;;20.50;36.00;;;;;;4900639;29;20304;-84
2023/08/22 04:25:54;;;;;;;8.60;6.13;;;20.40;39.80;;;;;;4901059;29;20644;-85
2023/08/22 04:28:20;;;;;;;10.10;6.20;;;20.50;40.20;;;;;;4902156;29;20633;-85
2023/08/22 04:30:46;;;;;;;11.30;6.80;;;20.50;38.50;;;;;;4900496;29;20182;-86
2023/08/22 04:33:14;;;;;;;11.63;6.67;;;20.50;38.30;;;;;;4900070;29;20628;-84
2023/08/22 04:35:41;;;;;;;9.97;7.20;;;20.50;38.10;;;;;;4900122;29;20208;-85
2023/08/22 04:38:07;;;;;;;11.67;6.73;;;20.50;37.60;;;;;;4900578;29;20190;-85
2023/08/22 04:40:33;;;;;;;9.43;6.43;;;20.60;35.40;;;;;;4917611;29;20643;-88
2023/08/22 04:42:58;;;;;;;10.80;7.07;;;20.60;34.10;;;;;;4900760;29;20231;-87
2023/08/22 04:45:24;;;;;;;12.07;6.80;;;20.70;32.70;;;;;;4907568;29;20278;-86
2023/08/22 04:47:50;;;;;;;9.00;6.80;;;20.60;31.60;;;;;;4927640;29;20175;-89
2023/08/22 04:50:16;;;;;;;18.77;8.07;;;20.70;29.90;;;;;;4904931;29;20174;-87
2023/08/22 04:52:41;;;;;;;11.37;6.77;;;20.60;31.30;;;;;;4901575;29;20185;-87
2023/08/22 04:55:07;;;;;;;12.87;7.23;;;20.60;30.90;;;;;;4901662;29;20209;-89
2023/08/22 04:57:33;;;;;;;12.40;7.30;;;20.60;30.80;;;;;;4900564;29;20194;-87
2023/08/22 04:59:59;;;;;;;12.70;6.83;;;20.80;26.60;;;;;;4918788;29;20290;-88
2023/08/22 05:02:24;;;;;;;12.13;7.00;;;20.80;25.00;;;;;;4907549;29;20227;-89
2023/08/22 05:04:50;;;;;;;12.73;6.80;;;20.80;25.20;;;;;;4908337;29;20182;-88
2023/08/22 05:07:16;;;;;;;13.70;7.93;;;20.90;22.40;;;;;;4906224;29;20183;-86
2023/08/22 05:09:41;;;;;;;11.73;7.33;;;21.10;15.60;;;;;;4901445;29;20179;-87
2023/08/22 05:12:08;;;;;;;12.57;7.57;;;21.10;10.60;;;;;;4918546;29;20640;-85
2023/08/22 05:14:34;;;;;;;12.27;8.70;;;21.00;15.50;;;;;;4901932;29;20237;-88
2023/08/22 05:17:00;;;;;;;13.67;9.10;;;20.70;24.10;;;;;;4900971;29;20205;-87
2023/08/22 05:19:26;;;;;;;15.67;8.90;;;20.50;30.00;;;;;;4899937;29;20182;-85
2023/08/22 05:21:51;;;;;;;13.93;8.90;;;20.60;30.90;;;;;;4900725;29;20298;-86
2023/08/22 05:24:17;;;;;;;12.53;9.80;;;20.70;30.10;;;;;;4901449;29;20282;-86
2023/08/22 05:26:43;;;;;;;14.83;10.07;;;20.60;29.70;;;;;;4900530;29;20649;-86
2023/08/22 05:29:09;;;;;;;14.43;10.33;;;20.60;32.20;;;;;;4900595;29;20188;-84
2023/08/22 05:31:34;;;;;;;13.47;9.37;;;20.60;32.50;;;;;;4900710;29;20188;-85
2023/08/22 05:34:00;;;;;;;14.83;8.73;;;20.60;33.10;;;;;;4900371;29;20192;-86
2023/08/22 05:36:26;;;;;;;17.23;10.47;;;20.50;34.20;;;;;;4901608;29;20243;-86
2023/08/22 05:38:52;;;;;;;13.03;8.93;;;20.50;38.10;;;;;;4903629;29;20273;-85
2023/08/22 05:41:18;;;;;;;13.03;8.77;;;20.50;38.70;;;;;;4903803;29;20201;-85
2023/08/22 05:43:43;;;;;;;14.80;8.80;;;20.50;35.10;;;;;;4903972;29;20189;-85
2023/08/22 05:46:09;;;;;;;17.17;8.53;;;20.50;37.40;;;;;;4905620;29;20179;-86
2023/08/22 05:48:35;;;;;;;16.23;8.70;;;20.40;37.80;;;;;;4924331;29;20535;-85
2023/08/22 05:51:02;;;;;;;17.43;8.70;;;20.40;40.10;;;;;;4911458;29;20323;-85
2023/08/22 05:53:28;;;;;;;15.33;8.00;;;20.40;39.00;;;;;;4904805;29;20655;-85
2023/08/22 05:55:55;;;;;;;15.97;9.07;;;20.50;37.90;;;;;;4921358;29;20210;-84
2023/08/22 05:58:21;;;;;;;15.67;8.53;;;20.70;28.20;;;;;;4903290;29;20259;-85
2023/08/22 06:00:47;;;;;;;16.57;9.37;;;20.80;24.30;;;;;;4905347;29;20198;-85
2023/08/22 06:03:13;;;;;;;18.57;9.00;;;20.80;21.90;;;;;;4909207;29;20215;-85
2023/08/22 06:05:40;;;;;;;16.10;9.20;;;20.80;22.30;;;;;;4905219;29;20197;-86
2023/08/22 06:08:06;;;;;;;17.50;8.90;;;20.70;23.30;;;;;;4920799;29;20201;-85
2023/08/22 06:10:32;;;;;;;14.17;8.57;;;20.80;26.60;;;;;;4920665;29;20927;-83
2023/08/22 06:12:58;;;;;;;13.50;7.27;;;20.90;23.00;;;;;;4902083;29;20189;-82
2023/08/22 06:15:24;;;;;;;14.23;8.17;;;21.20;16.00;;;;;;4903672;29;20193;-83
2023/08/22 06:17:50;;;;;;;20.40;8.53;;;21.40;8.40;;;;;;4918536;29;20259;-82
2023/08/22 06:20:17;;;;;;;15.00;7.80;;;21.50;1.00;;;;;;4914299;29;20188;-83
2023/08/22 06:22:42;;;;;;;12.60;7.30;;;21.70;1.00;;;;;;4918789;29;20203;-83
2023/08/22 06:25:08;;;;;;;12.63;7.57;;;21.60;1.00;;;;;;4901433;29;20183;-84
2023/08/22 06:27:34;;;;;;;18.43;7.93;;;21.70;1.00;;;;;;4904086;29;20181;-83
2023/08/22 06:30:03;;;;;;;14.60;8.03;;;21.70;1.00;;;;;;4923494;29;20183;-83
2023/08/22 06:32:28;;;;;;;21.53;8.80;;;21.80;1.00;;;;;;4902358;29;20540;-84
2023/08/22 06:34:59;;;;;;;16.50;8.23;;;21.90;1.00;;;;;;4902446;29;20177;-84
2023/08/22 06:37:25;;;;;;;22.57;8.60;;;22.00;1.00;;;;;;4903521;29;20603;-85
2023/08/22 06:39:51;;;;;;;24.77;7.70;;;22.20;1.00;;;;;;4920853;29;20173;-83
2023/08/22 06:42:16;;;;;;;20.20;8.73;;;22.30;1.00;;;;;;4923157;29;20231;-84
2023/08/22 06:44:42;;;;;;;25.37;9.23;;;22.50;1.00;;;;;;4902964;29;20586;-84
2023/08/22 06:47:09;;;;;;;24.63;9.30;;;22.50;1.00;;;;;;4919159;29;20189;-84
2023/08/22 06:49:35;;;;;;;27.17;8.50;;;22.40;1.00;;;;;;4922066;29;20166;-81
2023/08/22 06:52:00;;;;;;;17.97;8.60;;;22.40;1.00;;;;;;4919217;29;20653;-87
2023/08/22 06:54:26;;;;;;;18.13;9.27;;;22.40;1.00;;;;;;4903253;29;20184;-90
2023/08/22 06:56:52;;;;;;;15.00;8.03;;;22.30;1.00;;;;;;4902343;29;20184;-87
2023/08/22 06:59:17;;;;;;;12.73;9.53;;;22.40;1.00;;;;;;4902041;29;20661;-87
2023/08/22 07:01:43;;;;;;;12.93;7.80;;;22.10;1.00;;;;;;4902445;29;20700;-86
2023/08/22 07:04:09;;;;;;;15.40;8.50;;;22.00;1.00;;;;;;4902226;29;20513;-87
2023/08/22 07:06:34;;;;;;;12.37;7.07;;;22.10;1.00;;;;;;4903179;29;20212;-87
2023/08/22 07:09:00;;;;;;;13.53;6.80;;;22.00;1.00;;;;;;4902625;29;20177;-87
2023/08/22 07:11:26;;;;;;;11.20;6.87;;;21.90;1.00;;;;;;4902548;29;20528;-87
2023/08/22 07:13:51;;;;;;;11.80;7.20;;;22.10;1.00;;;;;;4901971;29;20582;-88
2023/08/22 07:16:17;;;;;;;14.93;7.10;;;22.00;1.00;;;;;;4903523;29;20233;-86
2023/08/22 07:18:44;;;;;;;11.87;7.53;;;22.10;1.00;;;;;;4908721;29;20200;-86
2023/08/22 07:21:11;;;;;;;12.37;7.20;;;22.10;1.00;;;;;;4920517;29;20173;-87
2023/08/22 07:23:37;;;;;;;11.20;7.30;;;22.10;1.00;;;;;;4912451;29;20220;-87
2023/08/22 07:26:02;;;;;;;14.30;6.80;;;22.20;1.00;;;;;;4902447;29;20178;-88
2023/08/22 07:28:28;;;;;;;16.10;7.93;;;22.50;1.00;;;;;;4901528;29;20189;-88
2023/08/22 07:30:54;;;;;;;11.37;7.10;;;22.50;1.00;;;;;;4901660;29;20268;-86
2023/08/22 07:33:19;;;;;;;12.80;7.40;;;22.60;1.00;;;;;;4896709;29;20184;-87
2023/08/22 07:35:46;;;;;;;14.47;7.63;;;22.60;1.00;;;;;;4907473;29;20782;-88
2023/08/22 07:38:11;;;;;;;15.63;7.63;;;22.60;1.00;;;;;;4911812;29;20192;-88
2023/08/22 07:40:40;;;;;;;10.07;6.63;;;22.80;1.00;;;;;;4906634;29;20573;-87
2023/08/22 07:43:06;;;;;;;11.47;7.13;;;22.60;1.00;;;;;;4901655;29;20323;-87
2023/08/22 07:45:31;;;;;;;9.93;4.87;;;22.70;1.00;;;;;;4904256;29;20287;-87
2023/08/22 07:47:58;;;;;;;10.97;4.97;;;22.60;1.00;;;;;;4911069;29;20267;-87
2023/08/22 07:50:24;;;;;;;12.47;6.73;;;22.70;1.00;;;;;;4914066;29;20540;-87
2023/08/22 07:52:50;;;;;;;12.90;5.43;;;22.70;1.00;;;;;;4913749;29;20185;-87
2023/08/22 07:55:16;;;;;;;11.33;5.60;;;22.70;1.00;;;;;;4900980;29;20182;-88
2023/08/22 07:57:41;;;;;;;8.77;4.20;;;22.70;1.00;;;;;;4901151;29;20174;-88
2023/08/22 08:00:11;;;;;;;8.23;5.03;;;23.00;1.00;;;;;;4900255;29;20635;-87
2023/08/22 08:02:37;;;;;;;8.33;4.80;;;23.00;1.00;;;;;;4902067;29;20674;-88
2023/08/22 08:05:04;;;;;;;8.37;4.57;;;23.10;1.00;;;;;;4895966;29;20277;-88
2023/08/22 08:07:30;;;;;;;9.60;4.47;;;23.20;1.00;;;;;;4906582;29;20192;-87
2023/08/22 08:09:56;;;;;;;7.23;3.60;;;23.10;1.00;;;;;;4902875;29;20181;-86
2023/08/22 08:12:23;;;;;;;9.87;3.67;;;23.20;1.00;;;;;;4900999;29;20623;-87
2023/08/22 08:14:49;;;;;;;9.83;3.60;;;23.10;1.00;;;;;;4918091;29;20195;-86
2023/08/22 08:17:17;;;;;;;6.23;3.77;;;23.20;1.00;;;;;;4917822;29;20236;-83
2023/08/22 08:19:43;;;;;;;6.97;3.77;;;23.30;1.00;;;;;;4914049;29;20525;-86
2023/08/22 08:22:09;;;;;;;7.10;3.97;;;23.20;1.00;;;;;;4899964;29;20213;-86
2023/08/22 08:24:35;;;;;;;9.47;4.07;;;23.20;1.00;;;;;;4885846;29;20325;-86
2023/08/22 08:27:00;;;;;;;6.37;3.40;;;23.20;1.00;;;;;;4901553;29;20221;-87
2023/08/22 08:29:26;;;;;;;10.43;3.90;;;23.20;1.00;;;;;;4901373;29;20181;-86
2023/08/22 08:32:04;;;;;;;7.83;3.67;;;23.30;1.00;;;;;;5123389;27;20623;-86
2023/08/22 08:34:32;;;;;;;7.33;4.47;;;23.30;1.00;;;;;;5089768;28;20175;-87
2023/08/22 08:36:58;;;;;;;5.87;3.57;;;23.40;1.00;;;;;;5090435;28;20200;-86
2023/08/22 08:39:24;;;;;;;7.67;3.07;;;23.60;1.00;;;;;;5089322;28;20183;-86
2023/08/22 08:42:04;;;;;;;7.80;2.77;;;23.40;1.00;;;;;;5088446;28;20225;-86
2023/08/22 08:44:33;;;;;;;6.70;2.17;;;23.20;1.00;;;;;;5088698;28;20525;-86
2023/08/22 08:47:00;;;;;;;5.47;2.40;;;22.90;1.00;;;;;;5087838;28;20187;-85
2023/08/22 08:49:25;;;;;;;5.93;2.60;;;22.70;1.00;;;;;;5088536;28;20512;-85
2023/08/22 08:51:52;;;;;;;9.03;3.17;;;22.50;1.00;;;;;;5088129;28;20225;-85
2023/08/22 08:54:22;;;;;;;9.17;3.63;;;22.70;1.00;;;;;;5088594;28;20187;-84
2023/08/22 08:56:47;;;;;;;6.37;3.40;;;22.60;1.00;;;;;;5088882;28;20659;-86
2023/08/22 08:59:14;;;;;;;10.10;3.40;;;22.60;1.00;;;;;;5088681;28;20307;-87
2023/08/22 09:01:44;;;;;;;7.67;3.10;;;22.70;1.00;;;;;;5089970;28;20179;-87
2023/08/22 09:04:10;;;;;;;6.83;3.03;;;22.80;1.00;;;;;;5090538;28;20170;-87
2023/08/22 09:06:38;;;;;;;7.23;2.67;;;22.60;1.00;;;;;;5089122;28;20173;-86
2023/08/22 09:09:07;;;;;;;6.30;2.60;;;22.40;1.00;;;;;;5087798;28;20203;-87
2023/08/22 09:11:33;;;;;;;9.63;2.80;;;22.40;1.00;;;;;;5100735;28;20692;-87
2023/08/22 09:14:00;;;;;;;7.47;2.77;;;22.50;1.00;;;;;;5090006;28;20174;-87
2023/08/22 09:16:27;;;;;;;6.30;2.63;;;22.40;1.00;;;;;;5082405;28;20601;-86
2023/08/22 09:19:03;;;;;;;4.47;2.03;;;22.50;1.00;;;;;;5071462;28;20207;-87
2023/08/22 09:21:29;;;;;;;6.87;2.57;;;22.50;1.00;;;;;;5071315;28;20261;-86
2023/08/22 09:24:10;;;;;;;5.30;2.23;;;22.60;1.00;;;;;;5076792;28;20279;-86
2023/08/22 09:26:37;;;;;;;7.03;2.50;;;22.90;1.00;;;;;;5072176;28;20178;-87
2023/08/22 09:29:07;;;;;;;4.83;2.13;;;22.90;1.00;;;;;;5076058;28;20176;-86
2023/08/22 09:31:36;;;;;;;5.43;1.87;;;22.90;1.00;;;;;;5075808;28;20784;-87
2023/08/22 09:34:12;;;;;;;5.27;2.13;;;22.70;1.00;;;;;;5068344;28;20250;-87
2023/08/22 09:36:45;;;;;;;5.17;2.17;;;22.60;1.00;;;;;;5067210;28;20229;-89
2023/08/22 09:39:16;;;;;;;7.10;2.53;;;22.60;1.00;;;;;;5068263;28;20182;-87
2023/08/22 09:41:42;;;;;;;5.23;2.20;;;22.50;1.00;;;;;;5064446;28;20179;-88
2023/08/22 09:44:11;;;;;;;6.53;2.90;;;22.50;1.00;;;;;;5055373;28;20636;-89
2023/08/22 09:46:42;;;;;;;6.97;2.90;;;22.50;1.00;;;;;;5062400;28;20203;-85
2023/08/22 09:49:13;;;;;;;8.03;2.80;;;22.50;1.00;;;;;;5060592;28;20276;-87
2023/08/22 09:51:40;;;;;;;5.97;2.83;;;22.50;1.00;;;;;;5058575;28;20208;-86
2023/08/22 09:54:06;;;;;;;11.27;2.90;;;22.50;1.00;;;;;;5057571;28;20671;-86
2023/08/22 09:56:32;;;;;;;6.67;2.97;;;22.50;1.00;;;;;;5061428;28;20171;-86
2023/08/22 09:59:01;;;;;;;5.80;2.73;;;22.70;1.00;;;;;;5059562;28;20171;-86
2023/08/22 10:01:29;;;;;;;6.13;2.90;;;22.80;1.00;;;;;;5061740;28;20180;-86
2023/08/22 10:03:56;;;;;;;11.10;2.70;;;22.90;1.00;;;;;;5060004;28;20287;-84
2023/08/22 10:06:42;;;;;;;5.40;2.30;;;22.90;1.00;;;;;;5057865;28;20195;-86
2023/08/22 10:09:11;;;;;;;7.03;2.90;;;22.90;1.00;;;;;;5059028;28;20172;-86
2023/08/22 10:11:50;;;;;;;7.67;2.60;;;23.10;1.00;;;;;;5059356;28;20207;-86
2023/08/22 10:14:30;;;;;;;5.87;2.80;;;23.30;1.00;;;;;;5058936;28;20207;-84
2023/08/22 10:16:58;;;;;;;6.73;3.10;;;23.20;1.00;;;;;;5058095;28;20259;-83
2023/08/22 10:19:25;;;;;;;7.70;3.03;;;23.20;1.00;;;;;;5056728;28;20622;-84
2023/08/22 10:21:53;;;;;;;8.77;2.97;;;23.30;1.00;;;;;;5055161;28;20180;-84
2023/08/22 10:24:31;;;;;;;4.03;2.37;;;23.30;1.00;;;;;;5056982;28;20203;-83
2023/08/22 10:27:14;;;;;;;8.27;3.23;;;23.30;1.00;;;;;;5054794;28;20171;-85
2023/08/22 10:29:46;;;;;;;8.30;3.00;;;23.20;1.00;;;;;;5056301;28;20255;-83
2023/08/22 10:32:11;;;;;;;5.57;2.90;;;23.10;1.00;;;;;;5061351;28;20177;-83
2023/08/22 10:34:40;;;;;;;10.83;2.57;;;23.20;1.00;;;;;;5053514;28;20175;-84
2023/08/22 10:37:16;;;;;;;7.47;3.10;;;23.40;1.00;;;;;;5053750;28;20167;-84
2023/08/22 10:39:47;;;;;;;5.83;2.90;;;23.50;1.00;;;;;;5053313;28;20177;-84
2023/08/22 10:42:23;;;;;;;9.00;2.63;;;23.60;1.00;;;;;;5055364;28;20176;-84
2023/08/22 10:44:50;;;;;;;8.50;3.30;;;23.80;1.00;;;;;;5056285;28;20187;-84
2023/08/22 10:47:23;;;;;;;5.80;1.93;;;23.90;1.00;;;;;;5058095;28;20180;-84
2023/08/22 10:49:54;;;;;;;5.67;2.07;;;23.90;1.00;;;;;;5060079;28;20176;-84
2023/08/22 10:52:36;;;;;;;5.73;2.20;;;23.80;1.00;;;;;;5059552;28;20757;-83
2023/08/22 10:55:19;;;;;;;4.53;1.70;;;23.70;1.00;;;;;;5057374;28;20159;-84
2023/08/22 10:57:47;;;;;;;6.20;1.90;;;23.60;1.00;;;;;;5053321;28;20236;-83
2023/08/22 11:00:21;;;;;;;7.13;1.70;;;23.50;1.00;;;;;;5062383;28;20213;-84
2023/08/22 11:02:58;;;;;;;5.00;1.50;;;23.60;1.00;;;;;;5052698;28;20172;-84
2023/08/22 11:05:26;;;;;;;6.60;1.60;;;23.90;1.00;;;;;;5052272;28;20275;-84
2023/08/22 11:07:52;;;;;;;8.33;1.80;;;24.20;1.00;;;;;;5051905;28;20255;-85
2023/08/22 11:10:21;;;;;;;5.00;1.70;;;24.30;1.00;;;;;;5054599;28;20741;-89
2023/08/22 11:12:49;;;;;;;5.87;1.97;;;24.30;1.00;;;;;;5067293;28;20165;-87
2023/08/22 11:15:16;;;;;;;6.93;1.70;;;24.50;1.00;;;;;;5075314;28;20168;-88
2023/08/22 11:17:43;;;;;;;3.67;1.50;;;24.80;1.00;;;;;;5069341;28;20223;-87
2023/08/22 11:20:16;;;;;;;3.73;1.27;;;24.90;1.00;;;;;;5058036;28;20222;-87
2023/08/22 11:22:43;;;;;;;3.57;1.10;;;24.90;1.00;;;;;;5056745;28;20199;-87
2023/08/22 11:25:12;;;;;;;3.17;1.20;;;25.00;99.90;;;;;;5058327;28;20248;-87
2023/08/22 11:27:44;;;;;;;4.10;1.00;;;25.10;99.90;;;;;;5058256;28;20193;-88
2023/08/22 11:30:11;;;;;;;4.33;1.50;;;24.90;99.90;;;;;;5056232;28;20204;-88
2023/08/22 11:32:38;;;;;;;3.50;1.03;;;24.80;99.90;;;;;;5059103;28;20208;-87
2023/08/22 11:35:06;;;;;;;5.60;1.60;;;24.70;99.90;;;;;;5063494;28;20195;-87
2023/08/22 11:37:38;;;;;;;5.97;1.53;;;24.70;99.90;;;;;;5065032;28;20176;-88
2023/08/22 11:40:05;;;;;;;3.90;1.30;;;24.60;99.90;;;;;;5066223;28;20195;-86
2023/08/22 11:42:33;;;;;;;4.73;1.30;;;24.70;99.90;;;;;;5061065;28;20595;-87
2023/08/22 11:45:06;;;;;;;6.23;1.50;;;24.80;99.90;;;;;;5066281;28;20181;-87
2023/08/22 11:47:50;;;;;;;6.50;1.80;;;24.90;99.90;;;;;;5061569;28;20280;-88
2023/08/22 11:50:24;;;;;;;4.63;1.63;;;25.00;99.90;;;;;;5051352;28;20209;-88
2023/08/22 11:52:58;;;;;;;5.90;1.80;;;24.90;99.90;;;;;;5039760;28;20668;-87
2023/08/22 11:55:28;;;;;;;4.37;1.33;;;24.40;99.90;;;;;;5047593;28;20272;-88
2023/08/22 11:58:03;;;;;;;3.10;1.07;;;24.20;99.90;;;;;;5037685;28;20591;-87
2023/08/22 12:00:31;;;;;;;5.47;1.30;;;24.20;99.90;;;;;;5036309;28;20232;-88
2023/08/22 12:02:58;;;;;;;4.80;1.50;;;24.30;99.90;;;;;;5035844;28;20177;-88
2023/08/22 12:05:49;;;;;;;3.33;1.20;;;24.20;99.90;;;;;;5033843;28;20255;-85
2023/08/22 12:08:17;;;;;;;5.67;1.60;;;24.20;99.90;;;;;;5034202;28;20170;-84
2023/08/22 12:10:44;;;;;;;4.73;1.33;;;24.10;99.90;;;;;;5032876;28;20260;-84
2023/08/22 12:13:10;;;;;;;4.93;1.30;;;24.30;99.90;;;;;;5032428;28;20251;-85
2023/08/22 12:15:37;;;;;;;5.80;1.57;;;24.30;99.90;;;;;;5030851;28;20251;-86
2023/08/22 12:18:04;;;;;;;3.17;1.40;;;24.50;99.90;;;;;;5032171;28;20173;-84
2023/08/22 12:20:34;;;;;;;7.33;1.77;;;24.70;99.90;;;;;;5033318;28;20174;-86
2023/08/22 12:23:02;;;;;;;5.17;1.53;;;24.80;99.90;;;;;;5032209;28;20235;-85
2023/08/22 12:25:28;;;;;;;3.23;1.23;;;24.70;99.90;;;;;;5032828;28;20150;-85
2023/08/22 12:27:53;;;;;;;1.90;1.00;;;24.80;99.90;;;;;;5031597;28;20235;-85
2023/08/22 12:30:19;;;;;;;4.50;1.10;;;25.00;99.90;;;;;;5031558;28;20688;-84
2023/08/22 12:32:45;;;;;;;3.33;1.47;;;25.00;97.30;;;;;;5031652;28;20629;-84
2023/08/22 12:35:12;;;;;;;4.10;0.97;;;25.00;99.90;;;;;;5030470;28;20177;-86
2023/08/22 12:37:41;;;;;;;5.57;1.90;;;25.10;99.90;;;;;;5032905;28;20542;-85
2023/08/22 12:40:10;;;;;;;3.20;1.37;;;25.30;90.50;;;;;;5030915;28;20208;-85
2023/08/22 12:42:41;;;;;;;1.73;0.70;;;25.30;99.90;;;;;;5030923;28;20527;-84
2023/08/22 12:45:10;;;;;;;4.00;0.90;;;25.50;1.00;;;;;;5033866;28;20173;-85
2023/08/22 12:47:37;;;;;;;3.80;1.10;;;25.80;99.90;;;;;;5031348;28;20289;-83
2023/08/22 12:50:03;;;;;;;2.90;0.70;;;26.00;99.90;;;;;;5030812;28;20204;-87